sensor_id;sensor_type;location;lat;lon;timestamp;temperature;humidity
65598;SHT31;52267;51.984;20.956;2023-12-07T00:01:45;-0.80;87.80
65598;SHT31;52267;51.984;20.956;2023-12-07T00:04:13;-0.77;87.80
65598;SHT31;52267;51.984;20.956;2023-12-07T00:06:39;-0.77;87.80
65598;SHT31;52267;51.984;20.956;2023-12-07T00:09:07;-0.74;87.80
65598;SHT31;52267;51.984;20.956;2023-12-07T00:11:34;-0.71;87.80
65598;SHT31;52267;51.984;20.956;2023-12-07T00:14:01;-0.69;87.80
65598;SHT31;52267;51.984;20.956;2023-12-07T00:16:28;-0.65;87.79
65598;SHT31;52267;51.984;20.956;2023-12-07T00:18:56;-0.67;87.79
65598;SHT31;52267;51.984;20.956;2023-12-07T00:21:23;-0.68;87.87
65598;SHT31;52267;51.984;20.956;2023-12-07T00:23:50;-0.66;87.89
65598;SHT31;52267;51.984;20.956;2023-12-07T00:26:17;-0.64;87.86
65598;SHT31;52267;51.984;20.956;2023-12-07T00:28:44;-0.63;87.83
65598;SHT31;52267;51.984;20.956;2023-12-07T00:31:11;-0.62;87.86
65598;SHT31;52267;51.984;20.956;2023-12-07T00:33:39;-0.60;87.90
65598;SHT31;52267;51.984;20.956;2023-12-07T00:36:06;-0.62;87.92
65598;SHT31;52267;51.984;20.956;2023-12-07T00:38:35;-0.62;88.00
65598;SHT31;52267;51.984;20.956;2023-12-07T00:41:02;-0.61;87.98
65598;SHT31;52267;51.984;20.956;2023-12-07T00:43:29;-0.58;87.97
65598;SHT31;52267;51.984;20.956;2023-12-07T00:45:56;-0.58;87.96
65598;SHT31;52267;51.984;20.956;2023-12-07T00:48:24;-0.61;88.03
65598;SHT31;52267;51.984;20.956;2023-12-07T00:50:51;-0.61;88.12
65598;SHT31;52267;51.984;20.956;2023-12-07T00:53:18;-0.58;88.19
65598;SHT31;52267;51.984;20.956;2023-12-07T00:55:45;-0.56;88.17
65598;SHT31;52267;51.984;20.956;2023-12-07T00:58:13;-0.54;88.19
65598;SHT31;52267;51.984;20.956;2023-12-07T01:00:40;-0.54;88.19
65598;SHT31;52267;51.984;20.956;2023-12-07T01:03:07;-0.51;88.20
65598;SHT31;52267;51.984;20.956;2023-12-07T01:05:34;-0.49;88.16
65598;SHT31;52267;51.984;20.956;2023-12-07T01:08:01;-0.46;88.20
65598;SHT31;52267;51.984;20.956;2023-12-07T01:10:29;-0.46;88.13
65598;SHT31;52267;51.984;20.956;2023-12-07T01:12:57;-0.44;88.19
65598;SHT31;52267;51.984;20.956;2023-12-07T01:15:24;-0.41;88.18
65598;SHT31;52267;51.984;20.956;2023-12-07T01:17:51;-0.40;88.20
65598;SHT31;52267;51.984;20.956;2023-12-07T01:20:18;-0.40;88.30
65598;SHT31;52267;51.984;20.956;2023-12-07T01:22:45;-0.40;88.40
65598;SHT31;52267;51.984;20.956;2023-12-07T01:25:12;-0.37;88.37
65598;SHT31;52267;51.984;20.956;2023-12-07T01:27:43;-0.37;88.30
65598;SHT31;52267;51.984;20.956;2023-12-07T01:30:10;-0.37;88.35
65598;SHT31;52267;51.984;20.956;2023-12-07T01:32:37;-0.36;88.40
65598;SHT31;52267;51.984;20.956;2023-12-07T01:35:04;-0.37;88.44
65598;SHT31;52267;51.984;20.956;2023-12-07T01:37:32;-0.38;88.57
65598;SHT31;52267;51.984;20.956;2023-12-07T01:39:59;-0.40;88.60
65598;SHT31;52267;51.984;20.956;2023-12-07T01:42:27;-0.42;88.85
65598;SHT31;52267;51.984;20.956;2023-12-07T01:44:54;-0.44;89.00
65598;SHT31;52267;51.984;20.956;2023-12-07T01:47:21;-0.42;88.97
65598;SHT31;52267;51.984;20.956;2023-12-07T01:49:48;-0.45;89.08
65598;SHT31;52267;51.984;20.956;2023-12-07T01:52:15;-0.42;89.04
65598;SHT31;52267;51.984;20.956;2023-12-07T01:54:43;-0.40;89.04
65598;SHT31;52267;51.984;20.956;2023-12-07T01:57:10;-0.41;89.12
65598;SHT31;52267;51.984;20.956;2023-12-07T01:59:38;-0.41;89.13
65598;SHT31;52267;51.984;20.956;2023-12-07T02:02:05;-0.38;89.19
65598;SHT31;52267;51.984;20.956;2023-12-07T02:04:32;-0.38;89.23
65598;SHT31;52267;51.984;20.956;2023-12-07T02:06:59;-0.35;89.18
65598;SHT31;52267;51.984;20.956;2023-12-07T02:09:27;-0.33;89.21
65598;SHT31;52267;51.984;20.956;2023-12-07T02:11:54;-0.33;89.27
65598;SHT31;52267;51.984;20.956;2023-12-07T02:14:21;-0.30;89.20
65598;SHT31;52267;51.984;20.956;2023-12-07T02:16:50;-0.28;89.15
65598;SHT31;52267;51.984;20.956;2023-12-07T02:22:43;-0.26;89.23
65598;SHT31;52267;51.984;20.956;2023-12-07T02:25:18;-0.26;89.25
65598;SHT31;52267;51.984;20.956;2023-12-07T02:28:10;-0.23;89.22
65598;SHT31;52267;51.984;20.956;2023-12-07T02:30:37;-0.23;89.20
65598;SHT31;52267;51.984;20.956;2023-12-07T02:33:05;-0.22;89.24
65598;SHT31;52267;51.984;20.956;2023-12-07T02:35:32;-0.24;89.38
65598;SHT31;52267;51.984;20.956;2023-12-07T02:38:00;-0.25;89.42
65598;SHT31;52267;51.984;20.956;2023-12-07T02:40:28;-0.22;89.40
65598;SHT31;52267;51.984;20.956;2023-12-07T02:42:57;-0.23;89.52
65598;SHT31;52267;51.984;20.956;2023-12-07T02:45:26;-0.23;89.50
65598;SHT31;52267;51.984;20.956;2023-12-07T02:47:53;-0.19;89.40
65598;SHT31;52267;51.984;20.956;2023-12-07T02:50:21;-0.18;89.40
65598;SHT31;52267;51.984;20.956;2023-12-07T02:52:48;-0.14;89.34
65598;SHT31;52267;51.984;20.956;2023-12-07T02:55:15;-0.11;89.30
65598;SHT31;52267;51.984;20.956;2023-12-07T02:57:42;-0.12;89.33
65598;SHT31;52267;51.984;20.956;2023-12-07T03:00:09;-0.11;89.29
65598;SHT31;52267;51.984;20.956;2023-12-07T03:02:39;-0.09;89.25
65598;SHT31;52267;51.984;20.956;2023-12-07T03:05:07;-0.09;89.28
65598;SHT31;52267;51.984;20.956;2023-12-07T03:07:34;-0.10;89.30
65598;SHT31;52267;51.984;20.956;2023-12-07T03:10:02;-0.07;89.32
65598;SHT31;52267;51.984;20.956;2023-12-07T03:12:30;-0.08;89.35
65598;SHT31;52267;51.984;20.956;2023-12-07T03:14:58;-0.09;89.33
65598;SHT31;52267;51.984;20.956;2023-12-07T03:17:25;-0.09;89.34
65598;SHT31;52267;51.984;20.956;2023-12-07T03:19:52;-0.11;89.43
65598;SHT31;52267;51.984;20.956;2023-12-07T03:22:26;-0.11;89.57
65598;SHT31;52267;51.984;20.956;2023-12-07T03:24:53;-0.10;89.57
65598;SHT31;52267;51.984;20.956;2023-12-07T03:27:20;-0.09;89.49
65598;SHT31;52267;51.984;20.956;2023-12-07T03:29:47;-0.08;89.50
65598;SHT31;52267;51.984;20.956;2023-12-07T03:32:14;-0.07;89.48
65598;SHT31;52267;51.984;20.956;2023-12-07T03:34:41;-0.07;89.43
65598;SHT31;52267;51.984;20.956;2023-12-07T03:37:08;-0.04;89.42
65598;SHT31;52267;51.984;20.956;2023-12-07T03:39:36;-0.04;89.42
65598;SHT31;52267;51.984;20.956;2023-12-07T03:42:03;-0.02;89.40
65598;SHT31;52267;51.984;20.956;2023-12-07T03:44:30;-0.01;89.34
65598;SHT31;52267;51.984;20.956;2023-12-07T03:46:58;-0.01;89.38
65598;SHT31;52267;51.984;20.956;2023-12-07T03:49:25;-0.01;89.39
65598;SHT31;52267;51.984;20.956;2023-12-07T03:51:52;-0.00;89.40
65598;SHT31;52267;51.984;20.956;2023-12-07T03:54:19;0.02;89.40
65598;SHT31;52267;51.984;20.956;2023-12-07T03:56:46;0.02;89.39
65598;SHT31;52267;51.984;20.956;2023-12-07T03:59:13;0.02;89.40
65598;SHT31;52267;51.984;20.956;2023-12-07T04:01:40;0.01;89.41
65598;SHT31;52267;51.984;20.956;2023-12-07T04:04:07;0.01;89.39
65598;SHT31;52267;51.984;20.956;2023-12-07T04:06:34;0.05;89.40
65598;SHT31;52267;51.984;20.956;2023-12-07T04:09:01;0.06;89.40
65598;SHT31;52267;51.984;20.956;2023-12-07T04:11:29;0.08;89.36
65598;SHT31;52267;51.984;20.956;2023-12-07T04:13:56;0.09;89.31
65598;SHT31;52267;51.984;20.956;2023-12-07T04:16:23;0.08;89.30
65598;SHT31;52267;51.984;20.956;2023-12-07T04:18:50;0.10;89.33
65598;SHT31;52267;51.984;20.956;2023-12-07T04:21:17;0.09;89.30
65598;SHT31;52267;51.984;20.956;2023-12-07T04:23:44;0.09;89.30
65598;SHT31;52267;51.984;20.956;2023-12-07T04:26:11;0.10;89.30
65598;SHT31;52267;51.984;20.956;2023-12-07T04:28:41;0.11;89.33
65598;SHT31;52267;51.984;20.956;2023-12-07T04:31:08;0.10;89.33
65598;SHT31;52267;51.984;20.956;2023-12-07T04:33:36;0.08;89.39
65598;SHT31;52267;51.984;20.956;2023-12-07T04:36:03;0.07;89.40
65598;SHT31;52267;51.984;20.956;2023-12-07T04:38:31;0.09;89.35
65598;SHT31;52267;51.984;20.956;2023-12-07T04:40:58;0.08;89.33
65598;SHT31;52267;51.984;20.956;2023-12-07T04:43:25;0.08;89.38
65598;SHT31;52267;51.984;20.956;2023-12-07T04:45:53;0.08;89.39
65598;SHT31;52267;51.984;20.956;2023-12-07T04:48:20;0.09;89.40
65598;SHT31;52267;51.984;20.956;2023-12-07T04:50:47;0.12;89.37
65598;SHT31;52267;51.984;20.956;2023-12-07T04:53:14;0.10;89.39
65598;SHT31;52267;51.984;20.956;2023-12-07T04:55:41;0.12;89.40
65598;SHT31;52267;51.984;20.956;2023-12-07T04:58:13;0.14;89.39
65598;SHT31;52267;51.984;20.956;2023-12-07T05:00:40;0.16;89.32
65598;SHT31;52267;51.984;20.956;2023-12-07T05:03:07;0.14;89.30
65598;SHT31;52267;51.984;20.956;2023-12-07T05:05:34;0.14;89.31
65598;SHT31;52267;51.984;20.956;2023-12-07T05:08:02;0.14;89.30
65598;SHT31;52267;51.984;20.956;2023-12-07T05:10:30;0.15;89.30
65598;SHT31;52267;51.984;20.956;2023-12-07T05:12:57;0.16;89.29
65598;SHT31;52267;51.984;20.956;2023-12-07T05:15:24;0.16;89.25
65598;SHT31;52267;51.984;20.956;2023-12-07T05:17:51;0.16;89.23
65598;SHT31;52267;51.984;20.956;2023-12-07T05:20:18;0.15;89.21
65598;SHT31;52267;51.984;20.956;2023-12-07T05:22:49;0.16;89.22
65598;SHT31;52267;51.984;20.956;2023-12-07T05:25:16;0.16;89.23
65598;SHT31;52267;51.984;20.956;2023-12-07T05:27:43;0.16;89.26
65598;SHT31;52267;51.984;20.956;2023-12-07T05:30:11;0.15;89.22
65598;SHT31;52267;51.984;20.956;2023-12-07T05:32:39;0.12;89.21
65598;SHT31;52267;51.984;20.956;2023-12-07T05:35:07;0.12;89.24
65598;SHT31;52267;51.984;20.956;2023-12-07T05:37:34;0.13;89.23
65598;SHT31;52267;51.984;20.956;2023-12-07T05:40:02;0.08;89.26
65598;SHT31;52267;51.984;20.956;2023-12-07T05:42:29;0.06;89.30
65598;SHT31;52267;51.984;20.956;2023-12-07T05:44:56;0.04;89.30
65598;SHT31;52267;51.984;20.956;2023-12-07T05:47:24;0.03;89.30
65598;SHT31;52267;51.984;20.956;2023-12-07T05:49:53;0.00;89.30
65598;SHT31;52267;51.984;20.956;2023-12-07T05:52:20;0.02;89.32
65598;SHT31;52267;51.984;20.956;2023-12-07T05:54:47;0.02;89.30
65598;SHT31;52267;51.984;20.956;2023-12-07T05:57:14;0.00;89.41
65598;SHT31;52267;51.984;20.956;2023-12-07T05:59:41;0.01;89.40
65598;SHT31;52267;51.984;20.956;2023-12-07T06:02:09;0.01;89.39
65598;SHT31;52267;51.984;20.956;2023-12-07T06:04:36;0.01;89.39
65598;SHT31;52267;51.984;20.956;2023-12-07T06:07:04;0.04;89.39
65598;SHT31;52267;51.984;20.956;2023-12-07T06:09:31;0.05;89.33
65598;SHT31;52267;51.984;20.956;2023-12-07T06:11:59;0.02;89.40
65598;SHT31;52267;51.984;20.956;2023-12-07T06:14:26;-0.01;89.43
65598;SHT31;52267;51.984;20.956;2023-12-07T06:16:53;-0.01;89.50
65598;SHT31;52267;51.984;20.956;2023-12-07T06:19:21;0.01;89.46
65598;SHT31;52267;51.984;20.956;2023-12-07T06:21:48;0.01;89.40
65598;SHT31;52267;51.984;20.956;2023-12-07T06:24:15;0.01;89.41
65598;SHT31;52267;51.984;20.956;2023-12-07T06:26:43;0.01;89.48
65598;SHT31;52267;51.984;20.956;2023-12-07T06:29:10;0.03;89.48
65598;SHT31;52267;51.984;20.956;2023-12-07T06:31:40;0.03;89.49
65598;SHT31;52267;51.984;20.956;2023-12-07T06:34:10;0.06;89.49
65598;SHT31;52267;51.984;20.956;2023-12-07T06:36:37;0.08;89.47
65598;SHT31;52267;51.984;20.956;2023-12-07T06:39:04;0.11;89.45
65598;SHT31;52267;51.984;20.956;2023-12-07T06:41:31;0.10;89.44
65598;SHT31;52267;51.984;20.956;2023-12-07T06:43:59;0.11;89.47
65598;SHT31;52267;51.984;20.956;2023-12-07T06:46:26;0.14;89.42
65598;SHT31;52267;51.984;20.956;2023-12-07T06:48:54;0.16;89.40
65598;SHT31;52267;51.984;20.956;2023-12-07T06:51:21;0.13;89.41
65598;SHT31;52267;51.984;20.956;2023-12-07T06:53:48;0.12;89.47
65598;SHT31;52267;51.984;20.956;2023-12-07T06:56:15;0.12;89.50
65598;SHT31;52267;51.984;20.956;2023-12-07T06:58:42;0.13;89.49
65598;SHT31;52267;51.984;20.956;2023-12-07T07:01:10;0.14;89.49
65598;SHT31;52267;51.984;20.956;2023-12-07T07:03:37;0.17;89.50
65598;SHT31;52267;51.984;20.956;2023-12-07T07:06:04;0.18;89.48
65598;SHT31;52267;51.984;20.956;2023-12-07T07:08:31;0.20;89.43
65598;SHT31;52267;51.984;20.956;2023-12-07T07:10:58;0.22;89.44
65598;SHT31;52267;51.984;20.956;2023-12-07T07:13:25;0.26;89.40
65598;SHT31;52267;51.984;20.956;2023-12-07T07:15:53;0.30;89.40
65598;SHT31;52267;51.984;20.956;2023-12-07T07:18:21;0.31;89.37
65598;SHT31;52267;51.984;20.956;2023-12-07T07:20:50;0.35;89.33
65598;SHT31;52267;51.984;20.956;2023-12-07T07:23:17;0.38;89.30
65598;SHT31;52267;51.984;20.956;2023-12-07T07:25:44;0.36;89.30
65598;SHT31;52267;51.984;20.956;2023-12-07T07:28:11;0.39;89.30
65598;SHT31;52267;51.984;20.956;2023-12-07T07:30:38;0.44;89.30
65598;SHT31;52267;51.984;20.956;2023-12-07T07:33:06;0.46;89.23
65598;SHT31;52267;51.984;20.956;2023-12-07T07:35:33;0.43;89.20
65598;SHT31;52267;51.984;20.956;2023-12-07T07:38:00;0.43;89.22
65598;SHT31;52267;51.984;20.956;2023-12-07T07:40:27;0.45;89.23
65598;SHT31;52267;51.984;20.956;2023-12-07T07:42:55;0.43;89.23
65598;SHT31;52267;51.984;20.956;2023-12-07T07:45:22;0.47;89.21
65598;SHT31;52267;51.984;20.956;2023-12-07T07:47:49;0.47;89.20
65598;SHT31;52267;51.984;20.956;2023-12-07T07:50:16;0.50;89.20
65598;SHT31;52267;51.984;20.956;2023-12-07T07:52:44;0.56;89.19
65598;SHT31;52267;51.984;20.956;2023-12-07T07:55:11;0.59;89.17
65598;SHT31;52267;51.984;20.956;2023-12-07T07:57:38;0.60;89.10
65598;SHT31;52267;51.984;20.956;2023-12-07T08:00:06;0.64;89.10
65598;SHT31;52267;51.984;20.956;2023-12-07T08:02:35;0.59;89.09
65598;SHT31;52267;51.984;20.956;2023-12-07T08:05:05;0.53;89.11
65598;SHT31;52267;51.984;20.956;2023-12-07T08:07:32;0.50;89.18
65598;SHT31;52267;51.984;20.956;2023-12-07T08:09:59;0.53;89.19
65598;SHT31;52267;51.984;20.956;2023-12-07T08:12:27;0.58;89.20
65598;SHT31;52267;51.984;20.956;2023-12-07T08:14:54;0.57;89.18
65598;SHT31;52267;51.984;20.956;2023-12-07T08:17:23;0.51;89.21
65598;SHT31;52267;51.984;20.956;2023-12-07T08:19:50;0.50;89.27
65598;SHT31;52267;51.984;20.956;2023-12-07T08:22:18;0.51;89.30
65598;SHT31;52267;51.984;20.956;2023-12-07T08:24:45;0.55;89.30
65598;SHT31;52267;51.984;20.956;2023-12-07T08:27:12;0.58;89.30
65598;SHT31;52267;51.984;20.956;2023-12-07T08:29:40;0.66;89.29
65598;SHT31;52267;51.984;20.956;2023-12-07T08:32:08;0.69;89.25
65598;SHT31;52267;51.984;20.956;2023-12-07T08:34:35;0.73;89.22
65598;SHT31;52267;51.984;20.956;2023-12-07T08:37:03;0.75;89.22
65598;SHT31;52267;51.984;20.956;2023-12-07T08:39:30;0.76;89.20
65598;SHT31;52267;51.984;20.956;2023-12-07T08:41:58;0.75;89.19
65598;SHT31;52267;51.984;20.956;2023-12-07T08:44:25;0.75;89.20
65598;SHT31;52267;51.984;20.956;2023-12-07T08:46:52;0.76;89.20
65598;SHT31;52267;51.984;20.956;2023-12-07T08:49:19;0.78;89.20
65598;SHT31;52267;51.984;20.956;2023-12-07T08:51:46;0.74;89.19
65598;SHT31;52267;51.984;20.956;2023-12-07T08:54:13;0.73;89.23
65598;SHT31;52267;51.984;20.956;2023-12-07T08:56:43;0.71;89.20
65598;SHT31;52267;51.984;20.956;2023-12-07T08:59:11;0.75;89.27
65598;SHT31;52267;51.984;20.956;2023-12-07T09:01:39;0.81;89.20
65598;SHT31;52267;51.984;20.956;2023-12-07T09:04:06;0.86;89.14
65598;SHT31;52267;51.984;20.956;2023-12-07T09:06:34;0.85;89.04
65598;SHT31;52267;51.984;20.956;2023-12-07T09:09:03;0.82;89.04
65598;SHT31;52267;51.984;20.956;2023-12-07T09:11:31;0.85;89.09
65598;SHT31;52267;51.984;20.956;2023-12-07T09:13:58;0.89;89.01
65598;SHT31;52267;51.984;20.956;2023-12-07T09:16:26;0.90;88.94
65598;SHT31;52267;51.984;20.956;2023-12-07T09:18:53;0.85;88.90
65598;SHT31;52267;51.984;20.956;2023-12-07T09:21:21;0.85;88.91
65598;SHT31;52267;51.984;20.956;2023-12-07T09:23:48;0.87;88.97
65598;SHT31;52267;51.984;20.956;2023-12-07T09:26:15;0.82;88.99
65598;SHT31;52267;51.984;20.956;2023-12-07T09:28:42;0.84;89.04
65598;SHT31;52267;51.984;20.956;2023-12-07T09:31:09;0.82;89.05
65598;SHT31;52267;51.984;20.956;2023-12-07T09:33:36;0.83;89.01
65598;SHT31;52267;51.984;20.956;2023-12-07T09:36:03;0.76;89.00
65598;SHT31;52267;51.984;20.956;2023-12-07T09:38:37;0.78;89.01
65598;SHT31;52267;51.984;20.956;2023-12-07T09:41:04;0.77;89.01
65598;SHT31;52267;51.984;20.956;2023-12-07T09:43:31;0.81;89.01
65598;SHT31;52267;51.984;20.956;2023-12-07T09:45:59;0.84;89.00
65598;SHT31;52267;51.984;20.956;2023-12-07T09:48:27;0.86;88.94
65598;SHT31;52267;51.984;20.956;2023-12-07T09:50:55;0.84;88.90
65598;SHT31;52267;51.984;20.956;2023-12-07T09:53:23;0.85;88.89
65598;SHT31;52267;51.984;20.956;2023-12-07T09:55:50;0.84;88.91
65598;SHT31;52267;51.984;20.956;2023-12-07T09:58:17;0.87;88.92
65598;SHT31;52267;51.984;20.956;2023-12-07T10:00:44;0.87;88.90
65598;SHT31;52267;51.984;20.956;2023-12-07T10:03:20;0.84;88.81
65598;SHT31;52267;51.984;20.956;2023-12-07T10:05:58;0.84;88.79
65598;SHT31;52267;51.984;20.956;2023-12-07T10:08:29;0.91;88.82
65598;SHT31;52267;51.984;20.956;2023-12-07T10:11:08;0.96;88.85
65598;SHT31;52267;51.984;20.956;2023-12-07T10:13:38;0.92;88.80
65598;SHT31;52267;51.984;20.956;2023-12-07T10:16:08;0.99;88.80
65598;SHT31;52267;51.984;20.956;2023-12-07T10:18:37;1.05;88.79
65598;SHT31;52267;51.984;20.956;2023-12-07T10:21:07;1.08;88.73
65598;SHT31;52267;51.984;20.956;2023-12-07T10:23:38;1.09;88.67
65598;SHT31;52267;51.984;20.956;2023-12-07T10:26:07;1.10;88.62
65598;SHT31;52267;51.984;20.956;2023-12-07T10:28:36;1.07;88.57
65598;SHT31;52267;51.984;20.956;2023-12-07T10:31:03;0.98;88.54
65598;SHT31;52267;51.984;20.956;2023-12-07T10:33:36;0.93;88.60
65598;SHT31;52267;51.984;20.956;2023-12-07T10:36:03;0.92;88.63
65598;SHT31;52267;51.984;20.956;2023-12-07T10:38:31;0.93;88.69
65598;SHT31;52267;51.984;20.956;2023-12-07T10:41:03;0.93;88.70
65598;SHT31;52267;51.984;20.956;2023-12-07T10:43:38;0.99;88.67
65598;SHT31;52267;51.984;20.956;2023-12-07T10:46:15;1.00;88.65
65598;SHT31;52267;51.984;20.956;2023-12-07T10:48:47;1.02;88.60
65598;SHT31;52267;51.984;20.956;2023-12-07T10:54:08;1.01;88.50
65598;SHT31;52267;51.984;20.956;2023-12-07T10:56:38;1.03;88.55
65598;SHT31;52267;51.984;20.956;2023-12-07T10:59:10;1.08;88.60
65598;SHT31;52267;51.984;20.956;2023-12-07T11:01:41;1.12;88.61
65598;SHT31;52267;51.984;20.956;2023-12-07T11:04:11;1.11;88.62
65598;SHT31;52267;51.984;20.956;2023-12-07T11:06:42;1.08;88.62
65598;SHT31;52267;51.984;20.956;2023-12-07T11:09:15;1.01;88.48
65598;SHT31;52267;51.984;20.956;2023-12-07T11:11:58;0.97;88.42
65598;SHT31;52267;51.984;20.956;2023-12-07T11:14:32;0.95;88.42
65598;SHT31;52267;51.984;20.956;2023-12-07T11:17:00;0.99;88.49
65598;SHT31;52267;51.984;20.956;2023-12-07T11:21:59;1.00;88.44
65598;SHT31;52267;51.984;20.956;2023-12-07T11:24:28;0.98;88.40
65598;SHT31;52267;51.984;20.956;2023-12-07T11:26:55;0.95;88.40
65598;SHT31;52267;51.984;20.956;2023-12-07T11:29:25;0.93;88.37
65598;SHT31;52267;51.984;20.956;2023-12-07T11:31:56;0.93;88.39
65598;SHT31;52267;51.984;20.956;2023-12-07T11:34:40;0.93;88.41
65598;SHT31;52267;51.984;20.956;2023-12-07T11:37:10;0.93;88.40
65598;SHT31;52267;51.984;20.956;2023-12-07T11:39:38;0.91;88.31
65598;SHT31;52267;51.984;20.956;2023-12-07T11:42:17;0.87;88.26
65598;SHT31;52267;51.984;20.956;2023-12-07T11:44:49;0.81;88.29
65598;SHT31;52267;51.984;20.956;2023-12-07T11:47:17;0.77;88.32
65598;SHT31;52267;51.984;20.956;2023-12-07T11:49:47;0.75;88.37
65598;SHT31;52267;51.984;20.956;2023-12-07T11:52:20;0.77;88.43
65598;SHT31;52267;51.984;20.956;2023-12-07T11:54:49;0.76;88.41
65598;SHT31;52267;51.984;20.956;2023-12-07T11:57:17;0.74;88.49
65598;SHT31;52267;51.984;20.956;2023-12-07T11:59:45;0.81;88.50
65598;SHT31;52267;51.984;20.956;2023-12-07T12:02:14;0.86;88.50
65598;SHT31;52267;51.984;20.956;2023-12-07T12:04:41;0.89;88.50
65598;SHT31;52267;51.984;20.956;2023-12-07T12:07:09;0.87;88.50
65598;SHT31;52267;51.984;20.956;2023-12-07T12:09:36;0.84;88.53
65598;SHT31;52267;51.984;20.956;2023-12-07T12:12:03;0.86;88.51
65598;SHT31;52267;51.984;20.956;2023-12-07T12:14:31;0.81;88.34
65598;SHT31;52267;51.984;20.956;2023-12-07T12:16:59;0.82;88.40
65598;SHT31;52267;51.984;20.956;2023-12-07T12:19:27;0.78;88.28
65598;SHT31;52267;51.984;20.956;2023-12-07T12:21:54;0.78;88.22
65598;SHT31;52267;51.984;20.956;2023-12-07T12:24:21;0.81;88.30
65598;SHT31;52267;51.984;20.956;2023-12-07T12:26:48;0.82;88.22
65598;SHT31;52267;51.984;20.956;2023-12-07T12:29:16;0.85;88.28
65598;SHT31;52267;51.984;20.956;2023-12-07T12:31:44;0.90;88.31
65598;SHT31;52267;51.984;20.956;2023-12-07T12:34:11;0.93;88.30
65598;SHT31;52267;51.984;20.956;2023-12-07T12:36:41;0.96;88.32
65598;SHT31;52267;51.984;20.956;2023-12-07T12:39:08;1.01;88.36
65598;SHT31;52267;51.984;20.956;2023-12-07T12:41:35;1.03;88.30
65598;SHT31;52267;51.984;20.956;2023-12-07T12:44:04;0.97;88.21
65598;SHT31;52267;51.984;20.956;2023-12-07T12:46:31;0.94;88.21
65598;SHT31;52267;51.984;20.956;2023-12-07T12:48:59;0.93;88.14
65598;SHT31;52267;51.984;20.956;2023-12-07T12:51:28;0.87;87.99
65598;SHT31;52267;51.984;20.956;2023-12-07T12:54:00;0.82;87.98
65598;SHT31;52267;51.984;20.956;2023-12-07T12:56:27;0.76;87.96
65598;SHT31;52267;51.984;20.956;2023-12-07T12:58:55;0.77;88.02
65598;SHT31;52267;51.984;20.956;2023-12-07T13:01:23;0.83;88.06
65598;SHT31;52267;51.984;20.956;2023-12-07T13:03:50;0.77;87.94
65598;SHT31;52267;51.984;20.956;2023-12-07T13:06:17;0.73;87.97
65598;SHT31;52267;51.984;20.956;2023-12-07T13:08:45;0.68;88.00
65598;SHT31;52267;51.984;20.956;2023-12-07T13:11:17;0.67;88.00
65598;SHT31;52267;51.984;20.956;2023-12-07T13:13:46;0.63;88.04
65598;SHT31;52267;51.984;20.956;2023-12-07T13:16:14;0.61;88.03
65598;SHT31;52267;51.984;20.956;2023-12-07T13:18:43;0.56;88.12
65598;SHT31;52267;51.984;20.956;2023-12-07T13:21:10;0.54;88.18
65598;SHT31;52267;51.984;20.956;2023-12-07T13:23:38;0.50;88.20
65598;SHT31;52267;51.984;20.956;2023-12-07T13:26:05;0.48;88.21
65598;SHT31;52267;51.984;20.956;2023-12-07T13:28:33;0.44;88.34
65598;SHT31;52267;51.984;20.956;2023-12-07T13:31:00;0.42;88.38
65598;SHT31;52267;51.984;20.956;2023-12-07T13:33:27;0.39;88.43
65598;SHT31;52267;51.984;20.956;2023-12-07T13:35:55;0.34;88.61
65598;SHT31;52267;51.984;20.956;2023-12-07T13:38:22;0.27;88.70
65598;SHT31;52267;51.984;20.956;2023-12-07T13:40:49;0.24;88.68
65598;SHT31;52267;51.984;20.956;2023-12-07T13:43:17;0.19;88.70
65598;SHT31;52267;51.984;20.956;2023-12-07T13:45:44;0.16;88.76
65598;SHT31;52267;51.984;20.956;2023-12-07T13:48:11;0.16;88.80
65598;SHT31;52267;51.984;20.956;2023-12-07T13:50:39;0.16;88.88
65598;SHT31;52267;51.984;20.956;2023-12-07T13:53:06;0.12;88.97
65598;SHT31;52267;51.984;20.956;2023-12-07T13:55:36;0.12;88.98
65598;SHT31;52267;51.984;20.956;2023-12-07T13:58:04;0.10;88.95
65598;SHT31;52267;51.984;20.956;2023-12-07T14:00:33;0.09;88.92
65598;SHT31;52267;51.984;20.956;2023-12-07T14:03:00;0.08;88.99
65598;SHT31;52267;51.984;20.956;2023-12-07T14:05:28;0.05;89.06
65598;SHT31;52267;51.984;20.956;2023-12-07T14:07:55;0.03;89.03
65598;SHT31;52267;51.984;20.956;2023-12-07T14:10:22;0.04;89.08
65598;SHT31;52267;51.984;20.956;2023-12-07T14:12:50;0.04;89.06
65598;SHT31;52267;51.984;20.956;2023-12-07T14:15:17;0.02;89.11
65598;SHT31;52267;51.984;20.956;2023-12-07T14:17:44;0.01;89.17
65598;SHT31;52267;51.984;20.956;2023-12-07T14:20:11;0.03;89.19
65598;SHT31;52267;51.984;20.956;2023-12-07T14:22:38;0.06;89.17
65598;SHT31;52267;51.984;20.956;2023-12-07T14:25:05;0.06;89.14
65598;SHT31;52267;51.984;20.956;2023-12-07T14:27:33;0.05;89.13
65598;SHT31;52267;51.984;20.956;2023-12-07T14:30:00;0.01;89.16
65598;SHT31;52267;51.984;20.956;2023-12-07T14:32:27;0.01;89.20
65598;SHT31;52267;51.984;20.956;2023-12-07T14:34:56;-0.01;89.28
65598;SHT31;52267;51.984;20.956;2023-12-07T14:37:23;-0.03;89.26
65598;SHT31;52267;51.984;20.956;2023-12-07T14:39:50;-0.04;89.24
65598;SHT31;52267;51.984;20.956;2023-12-07T14:42:17;-0.07;89.24
65598;SHT31;52267;51.984;20.956;2023-12-07T14:44:44;-0.10;89.28
65598;SHT31;52267;51.984;20.956;2023-12-07T14:47:11;-0.13;89.24
65598;SHT31;52267;51.984;20.956;2023-12-07T14:49:38;-0.17;89.27
65598;SHT31;52267;51.984;20.956;2023-12-07T14:52:06;-0.20;89.29
65598;SHT31;52267;51.984;20.956;2023-12-07T14:54:36;-0.22;89.30
65598;SHT31;52267;51.984;20.956;2023-12-07T14:57:03;-0.24;89.30
65598;SHT31;52267;51.984;20.956;2023-12-07T14:59:34;-0.24;89.29
65598;SHT31;52267;51.984;20.956;2023-12-07T15:02:01;-0.24;89.30
65598;SHT31;52267;51.984;20.956;2023-12-07T15:04:29;-0.22;89.29
65598;SHT31;52267;51.984;20.956;2023-12-07T15:06:57;-0.25;89.35
65598;SHT31;52267;51.984;20.956;2023-12-07T15:09:24;-0.26;89.46
65598;SHT31;52267;51.984;20.956;2023-12-07T15:11:51;-0.26;89.41
65598;SHT31;52267;51.984;20.956;2023-12-07T15:14:18;-0.26;89.38
65598;SHT31;52267;51.984;20.956;2023-12-07T15:16:45;-0.26;89.36
65598;SHT31;52267;51.984;20.956;2023-12-07T15:19:14;-0.23;89.31
65598;SHT31;52267;51.984;20.956;2023-12-07T15:21:41;-0.25;89.31
65598;SHT31;52267;51.984;20.956;2023-12-07T15:24:08;-0.28;89.38
65598;SHT31;52267;51.984;20.956;2023-12-07T15:26:36;-0.26;89.38
65598;SHT31;52267;51.984;20.956;2023-12-07T15:29:08;-0.29;89.41
65598;SHT31;52267;51.984;20.956;2023-12-07T15:31:36;-0.31;89.41
65598;SHT31;52267;51.984;20.956;2023-12-07T15:34:03;-0.34;89.46
65598;SHT31;52267;51.984;20.956;2023-12-07T15:36:31;-0.33;89.49
65598;SHT31;52267;51.984;20.956;2023-12-07T15:38:59;-0.33;89.46